createdAt,value
2019-03-06T00:01:56.162Z,22.90
2019-03-06T00:04:26.628Z,22.90
2019-03-06T00:06:57.279Z,22.90
2019-03-06T00:09:27.870Z,22.90
2019-03-06T00:11:59.358Z,22.90
2019-03-06T00:14:30.972Z,22.90
2019-03-06T00:17:02.354Z,22.90
2019-03-06T00:19:33.793Z,22.80
2019-03-06T00:22:04.938Z,22.80
2019-03-06T00:24:35.362Z,22.80
2019-03-06T00:27:05.968Z,22.80
2019-03-06T00:29:36.722Z,22.90
2019-03-06T00:32:07.291Z,22.90
2019-03-06T00:34:38.061Z,22.90
2019-03-06T00:37:08.566Z,22.90
2019-03-06T00:39:46.492Z,22.90
2019-03-06T00:42:17.302Z,22.90
2019-03-06T00:44:48.267Z,22.90
2019-03-06T00:47:18.903Z,22.90
2019-03-06T00:49:49.420Z,22.90
2019-03-06T00:52:20.063Z,22.90
2019-03-06T00:54:50.767Z,22.90
2019-03-06T00:57:21.696Z,22.90
2019-03-06T00:59:52.458Z,22.90
2019-03-06T01:02:23.326Z,22.90
2019-03-06T01:04:53.878Z,22.90
2019-03-06T01:07:24.523Z,22.90
2019-03-06T01:09:55.362Z,22.90
2019-03-06T01:12:25.979Z,22.90
2019-03-06T01:14:56.771Z,22.90
2019-03-06T01:17:28.453Z,22.90
2019-03-06T01:19:59.850Z,22.90
2019-03-06T01:22:31.848Z,22.90
2019-03-06T01:25:02.443Z,22.80
2019-03-06T01:27:34.081Z,22.90
2019-03-06T01:30:05.198Z,22.80
2019-03-06T01:32:35.941Z,22.80
2019-03-06T01:35:35.199Z,22.80
2019-03-06T01:38:40.261Z,22.80
2019-03-06T01:41:32.538Z,22.80
2019-03-06T01:44:13.803Z,22.80
2019-03-06T01:46:45.872Z,22.80
2019-03-06T01:49:16.461Z,22.80
2019-03-06T01:51:46.927Z,22.80
2019-03-06T01:54:17.544Z,22.80
2019-03-06T01:56:47.991Z,22.80
2019-03-06T01:59:18.390Z,22.80
2019-03-06T02:01:48.959Z,22.80
2019-03-06T02:04:19.368Z,22.80
2019-03-06T02:06:50.214Z,22.80
2019-03-06T02:09:21.391Z,22.80
2019-03-06T02:11:51.988Z,22.80
2019-03-06T02:14:22.633Z,22.80
2019-03-06T02:16:53.280Z,22.80
2019-03-06T02:19:23.967Z,22.80
2019-03-06T02:21:54.397Z,22.80
2019-03-06T02:24:25.196Z,22.80
2019-03-06T02:26:56.004Z,22.80
2019-03-06T02:29:26.531Z,22.80
2019-03-06T02:31:57.365Z,22.80
2019-03-06T02:34:28.114Z,22.80
2019-03-06T02:36:58.827Z,22.80
2019-03-06T02:39:29.530Z,22.80
2019-03-06T02:42:00.084Z,22.70
2019-03-06T02:44:39.992Z,22.70
2019-03-06T02:47:09.991Z,22.70
2019-03-06T02:49:40.811Z,22.70
2019-03-06T02:52:11.520Z,22.70
2019-03-06T02:54:42.312Z,22.70
2019-03-06T02:57:13.214Z,22.70
2019-03-06T03:00:02.733Z,22.70
2019-03-06T03:02:50.379Z,22.70
2019-03-06T03:05:43.351Z,22.70
2019-03-06T03:08:14.182Z,22.70
2019-03-06T03:10:45.054Z,22.70
2019-03-06T03:13:16.041Z,22.70
2019-03-06T03:15:46.542Z,22.70
2019-03-06T03:18:17.201Z,22.70
2019-03-06T03:20:48.010Z,22.70
2019-03-06T03:23:18.649Z,22.70
2019-03-06T03:25:49.174Z,22.70
2019-03-06T03:28:19.910Z,22.70
2019-03-06T03:30:50.636Z,22.70
2019-03-06T03:33:21.348Z,22.70
2019-03-06T03:35:52.289Z,22.70
2019-03-06T03:38:22.902Z,22.70
2019-03-06T03:40:53.577Z,22.70
2019-03-06T03:43:24.062Z,22.70
2019-03-06T03:45:54.871Z,22.60
2019-03-06T03:48:25.350Z,22.70
2019-03-06T03:50:55.967Z,22.60
2019-03-06T03:53:26.697Z,22.60
2019-03-06T03:55:57.395Z,22.60
2019-03-06T03:58:28.076Z,22.60
2019-03-06T04:00:58.530Z,22.60
2019-03-06T04:03:29.303Z,22.60
2019-03-06T04:05:59.794Z,22.60
2019-03-06T04:08:30.531Z,22.60
2019-03-06T04:11:01.171Z,22.60
2019-03-06T04:13:31.631Z,22.60
2019-03-06T04:16:02.142Z,22.60
2019-03-06T04:18:32.917Z,22.60
2019-03-06T04:21:03.995Z,22.60
2019-03-06T04:23:37.214Z,22.60
2019-03-06T04:26:07.798Z,22.60
2019-03-06T04:28:39.414Z,22.50
2019-03-06T04:31:10.034Z,22.50
2019-03-06T04:33:40.671Z,22.50
2019-03-06T04:36:11.244Z,22.50
2019-03-06T04:38:43.758Z,22.50
2019-03-06T04:41:14.396Z,22.50
2019-03-06T04:43:45.275Z,22.50
2019-03-06T04:46:16.110Z,22.50
2019-03-06T04:48:46.910Z,22.50
2019-03-06T04:51:17.768Z,22.50
2019-03-06T04:53:48.666Z,22.50
2019-03-06T04:56:19.298Z,22.60
2019-03-06T04:58:50.361Z,22.50
2019-03-06T05:01:20.991Z,22.60
2019-03-06T05:03:51.489Z,22.60
2019-03-06T05:06:22.199Z,22.60
2019-03-06T05:08:53.029Z,22.50
2019-03-06T05:11:24.146Z,22.50
2019-03-06T05:13:54.757Z,22.50
2019-03-06T05:16:43.417Z,22.50
2019-03-06T05:19:14.322Z,22.50
2019-03-06T05:21:45.497Z,22.50
2019-03-06T05:24:16.336Z,22.50
2019-03-06T05:26:46.973Z,22.50
2019-03-06T05:29:17.392Z,22.50
2019-03-06T05:32:42.552Z,22.50
2019-03-06T05:36:00.535Z,22.50
2019-03-06T05:38:42.186Z,22.50
2019-03-06T05:41:12.615Z,22.50
2019-03-06T05:43:43.130Z,22.40
2019-03-06T05:46:13.985Z,22.40
2019-03-06T05:48:44.986Z,22.50
2019-03-06T05:51:15.718Z,22.50
2019-03-06T05:53:46.313Z,22.50
2019-03-06T05:56:17.008Z,22.40
2019-03-06T05:58:47.752Z,22.50
2019-03-06T06:01:18.541Z,22.40
2019-03-06T06:03:49.353Z,22.50
2019-03-06T06:06:20.624Z,22.50
2019-03-06T06:08:51.223Z,22.50
2019-03-06T06:11:22.302Z,22.50
2019-03-06T06:13:52.997Z,22.50
2019-03-06T06:16:23.746Z,22.40
2019-03-06T06:18:54.179Z,22.40
2019-03-06T06:21:46.693Z,22.50
2019-03-06T06:24:28.833Z,22.40
2019-03-06T06:26:59.614Z,22.40
2019-03-06T06:29:30.606Z,22.40
2019-03-06T06:32:01.821Z,22.50
2019-03-06T06:34:32.690Z,22.50
2019-03-06T06:37:03.428Z,22.50
2019-03-06T06:39:34.258Z,22.50
2019-03-06T06:42:05.186Z,22.50
2019-03-06T06:44:35.958Z,22.50
2019-03-06T06:47:06.608Z,22.60
2019-03-06T06:49:37.223Z,22.60
2019-03-06T06:53:08.482Z,22.60
2019-03-06T06:56:12.454Z,22.60
2019-03-06T06:59:14.507Z,22.60
2019-03-06T07:02:58.485Z,22.60
2019-03-06T07:05:52.056Z,22.60
2019-03-06T07:08:41.506Z,22.60
2019-03-06T07:11:40.137Z,22.60
2019-03-06T07:14:36.709Z,22.70
2019-03-06T07:17:28.806Z,22.70
2019-03-06T07:20:08.618Z,22.60
2019-03-06T07:22:47.833Z,22.60
2019-03-06T07:25:26.106Z,22.50
2019-03-06T07:28:18.574Z,22.50
2019-03-06T07:31:14.399Z,22.40
2019-03-06T07:34:04.120Z,22.40
2019-03-06T07:36:45.874Z,22.40
2019-03-06T07:39:24.866Z,22.40
2019-03-06T07:42:17.368Z,22.40
2019-03-06T07:45:51.078Z,22.40
2019-03-06T07:48:37.922Z,22.30
2019-03-06T07:51:39.740Z,22.30
2019-03-06T07:54:20.413Z,22.30
2019-03-06T07:56:59.289Z,22.30
2019-03-06T07:59:30.243Z,22.30
2019-03-06T08:02:06.544Z,22.30
2019-03-06T08:04:37.187Z,22.30
2019-03-06T08:07:15.288Z,22.20
2019-03-06T08:09:45.928Z,22.20
2019-03-06T08:12:25.280Z,22.20
2019-03-06T08:15:14.998Z,22.20
2019-03-06T08:17:56.530Z,22.20
2019-03-06T08:20:51.820Z,22.30
2019-03-06T08:23:34.450Z,22.30
2019-03-06T08:26:05.423Z,22.30
2019-03-06T08:28:36.225Z,22.40
2019-03-06T08:31:43.957Z,22.40
2019-03-06T08:34:14.812Z,22.30
2019-03-06T08:36:45.625Z,22.30
2019-03-06T08:39:24.104Z,22.30
2019-03-06T08:41:54.787Z,22.30
2019-03-06T08:44:25.393Z,22.30
2019-03-06T08:47:17.710Z,22.20
2019-03-06T08:50:07.213Z,22.20
2019-03-06T08:52:59.828Z,22.20
2019-03-06T08:56:00.949Z,22.20
2019-03-06T08:58:47.430Z,22.20
2019-03-06T09:01:47.075Z,22.20
2019-03-06T09:04:48.754Z,22.20
2019-03-06T09:07:39.526Z,22.20
2019-03-06T09:10:38.014Z,22.20
2019-03-06T09:13:15.652Z,22.20
2019-03-06T09:16:03.884Z,22.20
2019-03-06T09:18:46.840Z,22.20
2019-03-06T09:21:32.713Z,22.20
2019-03-06T09:24:32.210Z,22.20
2019-03-06T09:27:18.413Z,22.20
2019-03-06T09:30:23.248Z,22.20
2019-03-06T09:33:28.400Z,22.20
2019-03-06T09:36:21.061Z,22.20
2019-03-06T09:39:22.644Z,22.20
2019-03-06T09:42:18.600Z,22.20
2019-03-06T09:45:01.401Z,22.20
2019-03-06T09:47:44.709Z,22.20
2019-03-06T09:50:34.161Z,22.20
2019-03-06T09:53:35.946Z,22.20
2019-03-06T09:56:25.396Z,22.20
2019-03-06T09:59:13.428Z,22.10
2019-03-06T10:01:51.435Z,22.10
2019-03-06T10:04:43.887Z,22.10
2019-03-06T10:07:45.430Z,22.10
2019-03-06T10:10:27.123Z,22.10
2019-03-06T10:13:22.798Z,22.10
2019-03-06T10:16:02.474Z,22.10
2019-03-06T10:18:55.305Z,22.10
2019-03-06T10:21:26.414Z,22.10
2019-03-06T10:23:57.801Z,22.10
2019-03-06T10:26:29.383Z,22.10
2019-03-06T10:29:01.067Z,22.20
2019-03-06T10:31:31.818Z,22.10
2019-03-06T10:34:02.861Z,22.10
2019-03-06T10:36:34.040Z,22.20
2019-03-06T10:39:06.724Z,22.10
2019-03-06T10:41:37.522Z,22.20
2019-03-06T10:44:08.145Z,22.10
2019-03-06T10:46:39.266Z,22.10
2019-03-06T10:49:10.013Z,22.10
2019-03-06T10:51:41.043Z,22.10
2019-03-06T10:54:12.213Z,22.10
2019-03-06T10:56:43.258Z,22.10
2019-03-06T10:59:14.361Z,22.10
2019-03-06T11:01:45.276Z,22.10
2019-03-06T11:04:39.725Z,22.10
2019-03-06T11:07:10.623Z,22.10
2019-03-06T11:09:41.267Z,22.10
2019-03-06T11:12:12.119Z,22.10
2019-03-06T11:14:44.513Z,22.10
2019-03-06T11:17:15.590Z,22.10
2019-03-06T11:19:46.577Z,22.10
2019-03-06T11:22:17.050Z,22.10
2019-03-06T11:24:47.705Z,22.10
2019-03-06T11:27:18.560Z,22.10
2019-03-06T11:29:49.294Z,22.10
2019-03-06T11:32:19.847Z,22.10
2019-03-06T11:34:51.084Z,22.10
2019-03-06T11:37:21.884Z,22.10
2019-03-06T11:39:52.724Z,22.10
2019-03-06T11:42:23.515Z,22.10
2019-03-06T11:44:54.241Z,22.10
2019-03-06T11:47:25.054Z,22.10
2019-03-06T11:49:55.679Z,22.10
2019-03-06T11:52:26.433Z,22.10
2019-03-06T11:55:05.742Z,22.10
2019-03-06T11:57:29.464Z,22.10
2019-03-06T12:00:00.434Z,22.10
2019-03-06T12:02:31.353Z,22.10
2019-03-06T12:05:02.309Z,22.10
2019-03-06T12:07:32.786Z,22.10
2019-03-06T12:10:03.880Z,22.10
2019-03-06T12:12:35.986Z,22.10
2019-03-06T12:15:06.929Z,22.10
2019-03-06T12:17:37.559Z,22.10
2019-03-06T12:20:08.648Z,22.10
2019-03-06T12:22:39.774Z,22.10
2019-03-06T12:25:10.701Z,22.10
2019-03-06T12:27:41.857Z,22.10
2019-03-06T12:30:12.582Z,22.10
2019-03-06T12:32:45.549Z,22.10
2019-03-06T12:35:16.749Z,22.10
2019-03-06T12:37:48.296Z,22.10
2019-03-06T12:40:18.974Z,22.10
2019-03-06T12:42:50.178Z,22.10
2019-03-06T12:45:21.393Z,22.10
2019-03-06T12:47:55.688Z,22.10
2019-03-06T12:50:27.179Z,22.10
2019-03-06T12:52:58.750Z,22.10
2019-03-06T12:55:30.554Z,22.10
2019-03-06T12:58:01.614Z,22.10
2019-03-06T13:00:32.791Z,22.10
2019-03-06T13:03:04.675Z,22.20
2019-03-06T13:05:35.584Z,22.20
2019-03-06T13:08:06.398Z,22.20
2019-03-06T13:10:37.411Z,22.20
2019-03-06T13:13:08.254Z,22.20
2019-03-06T13:15:39.479Z,22.20
2019-03-06T13:18:10.170Z,22.20
2019-03-06T13:20:41.313Z,22.20
2019-03-06T13:23:12.062Z,22.20
2019-03-06T13:25:43.170Z,22.20
2019-03-06T13:28:14.150Z,22.10
2019-03-06T13:30:45.322Z,22.10
2019-03-06T13:33:23.206Z,22.10
2019-03-06T13:35:54.545Z,22.20
2019-03-06T13:38:26.719Z,22.20
2019-03-06T13:40:57.985Z,22.20
2019-03-06T13:43:28.915Z,22.20
2019-03-06T13:45:59.902Z,22.20
2019-03-06T13:48:31.242Z,22.20
2019-03-06T13:51:04.380Z,22.10
2019-03-06T13:53:35.450Z,22.10
2019-03-06T13:56:07.688Z,22.10
2019-03-06T13:58:39.232Z,22.10
2019-03-06T14:01:12.043Z,22.10
2019-03-06T14:03:47.511Z,22.10
2019-03-06T14:06:18.521Z,22.10
2019-03-06T14:08:50.973Z,22.10
2019-03-06T14:11:22.964Z,22.10
2019-03-06T14:13:54.018Z,22.10
2019-03-06T14:16:30.420Z,22.10
2019-03-06T14:19:01.444Z,22.10
2019-03-06T14:21:32.092Z,22.10
2019-03-06T14:24:03.206Z,22.10
2019-03-06T14:26:35.355Z,22.10
2019-03-06T14:29:14.987Z,22.10
2019-03-06T14:31:50.423Z,22.00
2019-03-06T14:34:26.573Z,22.10
2019-03-06T14:36:58.110Z,22.00
2019-03-06T14:39:36.286Z,22.00
2019-03-06T14:42:09.270Z,22.10
2019-03-06T14:44:57.844Z,22.10
2019-03-06T14:47:28.736Z,22.10
2019-03-06T14:49:59.875Z,22.10
2019-03-06T14:52:30.565Z,22.00
2019-03-06T14:55:01.270Z,22.00
2019-03-06T14:57:32.166Z,22.10
2019-03-06T15:00:03.123Z,22.00
2019-03-06T15:02:33.834Z,22.10
2019-03-06T15:05:04.871Z,22.10
2019-03-06T15:07:38.090Z,22.00
2019-03-06T15:10:13.175Z,22.00
2019-03-06T15:12:45.218Z,22.00
2019-03-06T15:15:18.830Z,22.00
2019-03-06T15:17:51.292Z,22.00
2019-03-06T15:20:22.317Z,22.00
2019-03-06T15:22:53.622Z,22.00
2019-03-06T15:25:25.471Z,22.00
2019-03-06T15:27:56.730Z,22.00
2019-03-06T15:30:27.638Z,22.00
2019-03-06T15:32:58.491Z,22.00
2019-03-06T15:35:31.971Z,22.00
2019-03-06T15:38:02.733Z,22.00
2019-03-06T15:40:33.984Z,22.00
2019-03-06T15:43:06.035Z,22.00
2019-03-06T15:45:36.998Z,22.00
2019-03-06T15:48:07.704Z,22.00
2019-03-06T15:50:38.310Z,22.00
2019-03-06T15:53:08.960Z,22.00
2019-03-06T15:55:39.538Z,22.10
2019-03-06T15:58:10.181Z,22.10
2019-03-06T16:00:46.315Z,22.10
2019-03-06T16:03:14.056Z,22.10
2019-03-06T16:05:44.881Z,22.10
2019-03-06T16:08:15.864Z,22.10
2019-03-06T16:10:46.646Z,22.10
2019-03-06T16:13:17.304Z,22.10
2019-03-06T16:15:48.117Z,22.10
2019-03-06T16:18:18.728Z,22.00
2019-03-06T16:20:49.514Z,22.00
2019-03-06T16:23:20.264Z,22.00
2019-03-06T16:25:51.058Z,22.10
2019-03-06T16:28:21.630Z,22.10
2019-03-06T16:30:52.345Z,22.00
2019-03-06T16:33:23.232Z,22.00
2019-03-06T16:35:53.884Z,22.10
2019-03-06T16:38:24.439Z,22.10
2019-03-06T16:40:55.195Z,22.10
2019-03-06T16:43:25.916Z,22.10
2019-03-06T16:45:56.400Z,22.00
2019-03-06T16:48:27.154Z,22.00
2019-03-06T16:50:58.156Z,22.00
2019-03-06T16:53:29.249Z,22.00
2019-03-06T16:56:00.025Z,22.00
2019-03-06T16:58:30.775Z,22.00
2019-03-06T17:01:01.567Z,22.00
2019-03-06T17:03:32.408Z,22.10
2019-03-06T17:06:03.055Z,22.00
2019-03-06T17:08:33.879Z,22.00
2019-03-06T17:11:04.501Z,22.00
2019-03-06T17:13:35.426Z,22.00
2019-03-06T17:16:06.114Z,22.00
2019-03-06T17:18:36.556Z,22.00
2019-03-06T17:21:07.531Z,22.00
2019-03-06T17:23:38.144Z,22.00
2019-03-06T17:26:08.727Z,22.00
2019-03-06T17:28:39.503Z,22.00
2019-03-06T17:31:10.135Z,22.10
2019-03-06T17:33:40.814Z,22.00
2019-03-06T17:36:11.444Z,22.00
2019-03-06T17:38:42.027Z,22.00
2019-03-06T17:41:13.020Z,22.00
2019-03-06T17:43:43.960Z,22.00
2019-03-06T17:46:14.638Z,22.00
2019-03-06T17:48:45.308Z,22.00
2019-03-06T17:51:15.832Z,22.10
2019-03-06T17:53:47.010Z,22.10
2019-03-06T17:56:17.779Z,22.10
2019-03-06T17:58:48.277Z,22.10
2019-03-06T18:01:20.469Z,22.10
2019-03-06T18:04:09.111Z,22.10
2019-03-06T18:06:39.801Z,22.10
2019-03-06T18:09:10.637Z,22.10
2019-03-06T18:11:41.673Z,22.10
2019-03-06T18:14:12.857Z,22.10
2019-03-06T18:16:44.083Z,22.10
2019-03-06T18:19:15.292Z,22.10
2019-03-06T18:21:46.058Z,22.10
2019-03-06T18:24:18.892Z,22.10
2019-03-06T18:26:50.648Z,22.10
2019-03-06T18:29:23.974Z,22.10
2019-03-06T18:31:56.881Z,22.10
2019-03-06T18:34:27.670Z,22.10
2019-03-06T18:36:58.564Z,22.10
2019-03-06T18:39:30.227Z,22.10
2019-03-06T18:42:01.264Z,22.10
2019-03-06T18:44:32.207Z,22.10
2019-03-06T18:47:03.093Z,22.10
2019-03-06T18:49:36.075Z,22.10
2019-03-06T18:52:06.849Z,22.10
2019-03-06T18:54:37.935Z,22.00
2019-03-06T18:57:08.631Z,22.00
2019-03-06T18:59:39.506Z,22.00
2019-03-06T19:02:11.364Z,22.00
2019-03-06T19:04:42.780Z,22.00
2019-03-06T19:07:14.048Z,22.00
2019-03-06T19:09:45.094Z,22.00
2019-03-06T19:12:15.993Z,22.00
2019-03-06T19:14:46.630Z,22.10
2019-03-06T19:17:17.348Z,22.10
2019-03-06T19:19:48.530Z,22.10
2019-03-06T19:22:19.170Z,22.10
2019-03-06T19:24:49.981Z,22.10
2019-03-06T19:27:20.743Z,22.10
2019-03-06T19:29:51.503Z,22.10
2019-03-06T19:32:22.835Z,22.10
2019-03-06T19:34:53.645Z,22.10
2019-03-06T19:37:24.544Z,22.10
2019-03-06T19:39:55.356Z,22.10
2019-03-06T19:42:25.964Z,22.10
2019-03-06T19:44:56.705Z,22.10
2019-03-06T19:47:27.728Z,22.10
2019-03-06T19:49:58.751Z,22.10
2019-03-06T19:52:30.049Z,22.10
2019-03-06T19:55:00.588Z,22.10
2019-03-06T19:57:50.698Z,22.10
2019-03-06T20:00:21.738Z,22.10
2019-03-06T20:02:52.626Z,22.10
2019-03-06T20:05:24.476Z,22.10
2019-03-06T20:07:55.404Z,22.10
2019-03-06T20:10:26.376Z,22.10
2019-03-06T20:12:57.096Z,22.10
2019-03-06T20:15:27.821Z,22.10
2019-03-06T20:17:58.392Z,22.10
2019-03-06T20:20:29.225Z,22.10
2019-03-06T20:23:00.239Z,22.20
2019-03-06T20:25:31.292Z,22.20
2019-03-06T20:28:01.998Z,22.20
2019-03-06T20:30:32.766Z,22.30
2019-03-06T20:33:03.410Z,22.40
2019-03-06T20:35:34.350Z,22.50
2019-03-06T20:38:05.052Z,22.50
2019-03-06T20:40:36.028Z,22.50
2019-03-06T20:43:06.744Z,22.50
2019-03-06T20:45:37.784Z,22.60
2019-03-06T20:48:08.723Z,22.60
2019-03-06T20:50:39.895Z,22.60
2019-03-06T20:53:10.790Z,22.60
2019-03-06T20:55:42.066Z,22.70
2019-03-06T20:58:12.945Z,22.90
2019-03-06T21:00:44.040Z,22.90
2019-03-06T21:03:14.872Z,23.00
2019-03-06T21:05:45.625Z,23.10
2019-03-06T21:08:16.746Z,23.10
2019-03-06T21:10:47.250Z,23.20
2019-03-06T21:13:18.226Z,23.20
2019-03-06T21:15:49.004Z,23.20
2019-03-06T21:18:19.878Z,23.20
2019-03-06T21:20:50.605Z,23.10
2019-03-06T21:23:21.684Z,23.20
2019-03-06T21:25:52.479Z,23.10
2019-03-06T21:28:23.133Z,23.10
2019-03-06T21:30:53.923Z,23.00
2019-03-06T21:33:24.811Z,23.00
2019-03-06T21:35:56.148Z,23.00
2019-03-06T21:38:27.000Z,23.00
2019-03-06T21:40:57.598Z,23.00
2019-03-06T21:43:28.432Z,23.00
2019-03-06T21:46:01.310Z,23.00
2019-03-06T21:48:31.455Z,23.10
2019-03-06T21:51:02.199Z,23.20
2019-03-06T21:53:32.711Z,23.20
2019-03-06T21:56:03.553Z,23.20
2019-03-06T21:58:34.165Z,23.10
2019-03-06T22:01:05.103Z,23.10
2019-03-06T22:03:35.915Z,23.10
2019-03-06T22:06:06.370Z,23.10
2019-03-06T22:08:37.090Z,23.10
2019-03-06T22:11:07.856Z,23.10
2019-03-06T22:13:38.534Z,23.10
2019-03-06T22:16:09.517Z,23.00
2019-03-06T22:18:40.130Z,22.90
2019-03-06T22:21:10.811Z,22.90
2019-03-06T22:23:41.513Z,22.90
2019-03-06T22:26:12.189Z,22.90
2019-03-06T22:28:43.294Z,22.90
2019-03-06T22:31:14.040Z,22.90
2019-03-06T22:33:48.505Z,22.80
2019-03-06T22:36:21.942Z,22.80
2019-03-06T22:38:53.959Z,22.70
2019-03-06T22:41:24.885Z,22.70
2019-03-06T22:43:55.707Z,22.70
2019-03-06T22:46:26.432Z,22.70
2019-03-06T22:48:56.892Z,22.70
2019-03-06T22:51:27.704Z,22.70
2019-03-06T22:53:58.334Z,22.70
2019-03-06T22:56:29.177Z,22.60
2019-03-06T22:58:59.722Z,22.60
2019-03-06T23:01:33.335Z,22.60
2019-03-06T23:04:04.210Z,22.60
2019-03-06T23:06:34.966Z,22.50
2019-03-06T23:09:09.113Z,22.50
2019-03-06T23:11:39.555Z,22.50
2019-03-06T23:14:10.445Z,22.50
2019-03-06T23:16:41.179Z,22.50
2019-03-06T23:19:11.848Z,22.50
2019-03-06T23:21:42.553Z,22.50
2019-03-06T23:24:14.008Z,22.50
2019-03-06T23:26:44.724Z,22.50
2019-03-06T23:29:15.266Z,22.40
2019-03-06T23:31:50.501Z,22.40
2019-03-06T23:34:21.241Z,22.40
2019-03-06T23:36:52.128Z,22.40
2019-03-06T23:39:22.946Z,22.40
2019-03-06T23:41:53.677Z,22.40
2019-03-06T23:44:24.344Z,22.40
2019-03-06T23:46:55.127Z,22.40
2019-03-06T23:49:25.795Z,22.40
2019-03-06T23:52:01.063Z,22.40
2019-03-06T23:54:32.540Z,22.40
2019-03-06T23:57:03.395Z,22.40
2019-03-06T23:59:34.109Z,22.40
